Time;durP1;ratioP1;P1;durP2;ratioP2;P2;SDS_P1;SDS_P2;PMS_P1;PMS_P2;Temp;Humidity;BMP_temperature;BMP_pressure;BME280_temperature;BME280_humidity;BME280_pressure;Samples;Min_cycle;Max_cycle;Signal;HPM_P1;HPM_P2
2021/05/10 00:00:56;;;;;;;11.48;7.08;;;;;;;6.65;67.76;98291.18;1845761;77;22855;-79
2021/05/10 00:03:36;;;;;;;13.20;6.72;;;;;;;6.38;67.93;98292.26;1852059;77;22860;-76
2021/05/10 00:06:14;;;;;;;8.95;6.35;;;;;;;6.25;69.11;98298.95;1804337;79;23272;-78
2021/05/10 00:08:51;;;;;;;11.53;6.80;;;;;;;6.16;68.54;98301.21;1761262;79;23291;-79
2021/05/10 00:11:28;;;;;;;11.12;7.67;;;;;;;6.09;68.05;98304.75;1805336;79;27933;-79
2021/05/10 00:14:06;;;;;;;10.23;7.47;;;;;;;6.25;68.55;98298.06;1802811;79;27918;-80
2021/05/10 00:16:44;;;;;;;11.97;6.70;;;;;;;6.37;68.48;98300.63;1780597;79;22895;-78
2021/05/10 00:19:20;;;;;;;9.43;6.65;;;;;;;6.17;68.68;98298.12;1820905;79;22170;-80
2021/05/10 00:21:57;;;;;;;12.45;7.90;;;;;;;6.07;68.65;98299.95;1798194;79;27960;-77
2021/05/10 00:24:35;;;;;;;9.15;6.20;;;;;;;6.22;68.73;98300.73;1849773;76;22172;-78
2021/05/10 00:27:13;;;;;;;9.55;6.70;;;;;;;6.02;68.98;98299.93;1821483;77;22771;-78
2021/05/10 00:29:50;;;;;;;11.15;6.33;;;;;;;5.90;69.60;98306.59;1781278;79;22891;-79
2021/05/10 00:32:28;;;;;;;10.08;6.35;;;;;;;5.83;68.88;98310.13;1803003;79;22947;-79
2021/05/10 00:35:07;;;;;;;9.65;6.40;;;;;;;5.75;68.88;98295.28;1781511;79;22884;-80
2021/05/10 00:37:45;;;;;;;9.50;6.35;;;;;;;5.68;68.93;98295.75;1780627;79;22895;-78
2021/05/10 00:40:26;;;;;;;8.93;6.05;;;;;;;5.60;68.97;98300.62;1781363;79;23254;-78
2021/05/10 00:43:03;;;;;;;9.25;6.30;;;;;;;5.51;68.98;98295.82;1781205;79;22883;-77
2021/05/10 00:45:40;;;;;;;10.28;7.55;;;;;;;5.45;68.97;98294.55;1802138;79;28123;-80
2021/05/10 00:48:18;;;;;;;18.00;6.97;;;;;;;5.60;69.57;98284.38;1820886;79;22338;-77
2021/05/10 00:50:55;;;;;;;9.35;6.53;;;;;;;5.46;69.99;98291.03;1781145;79;22894;-79
2021/05/10 00:53:32;;;;;;;9.88;6.53;;;;;;;5.37;70.10;98295.89;1820947;79;22321;-79
2021/05/10 00:56:09;;;;;;;12.77;7.40;;;;;;;5.34;70.15;98295.00;1795498;79;30045;-78
2021/05/10 00:58:49;;;;;;;7.53;6.37;;;;;;;5.49;70.45;98290.99;1779082;79;22888;-78
2021/05/10 01:01:26;;;;;;;10.55;7.55;;;;;;;5.39;70.60;98291.91;1776017;79;28009;-76
2021/05/10 01:04:03;;;;;;;9.48;6.55;;;;;;;5.59;70.63;98298.84;1815637;79;21112;-78
2021/05/10 01:06:40;;;;;;;11.22;6.72;;;;;;;5.43;70.78;98296.75;1818415;79;22320;-78
2021/05/10 01:09:17;;;;;;;10.90;7.65;;;;;;;5.32;72.17;98293.72;1801827;79;27938;-79
2021/05/10 01:11:54;;;;;;;9.93;7.60;;;;;;;5.51;71.12;98297.56;1805238;79;28924;-77
2021/05/10 01:14:35;;;;;;;11.15;7.15;;;;;;;5.61;71.52;98291.84;1818382;79;22317;-76
2021/05/10 01:17:14;;;;;;;11.95;6.92;;;;;;;5.41;71.65;98292.34;1820871;79;23175;-79
2021/05/10 01:19:51;;;;;;;10.38;6.87;;;;;;;5.30;71.51;98288.89;1815710;79;23054;-78
2021/05/10 01:22:44;;;;;;;12.90;7.17;;;;;;;5.22;72.21;98286.72;1804186;79;23274;-78
2021/05/10 01:25:27;;;;;;;11.03;6.15;;;;;;;5.15;71.33;98289.38;1820682;79;22984;-78
2021/05/10 01:28:04;;;;;;;8.48;5.35;;;;;;;5.09;71.33;98284.57;1845489;77;23392;-77
2021/05/10 01:30:48;;;;;;;11.05;7.35;;;;;;;5.02;71.97;98288.96;1805207;79;28301;-79
2021/05/10 01:33:23;;;;;;;9.13;6.22;;;;;;;5.15;71.38;98285.44;1781258;79;23392;-79
2021/05/10 01:36:00;;;;;;;11.70;6.08;;;;;;;5.06;71.92;98294.65;1780597;79;22920;-77
2021/05/10 01:38:38;;;;;;;9.90;5.78;;;;;;;5.01;72.20;98292.47;1813577;79;22870;-79
2021/05/10 01:41:15;;;;;;;8.65;5.30;;;;;;;4.93;75.37;98291.18;1818437;79;22321;-79
2021/05/10 01:43:52;;;;;;;9.23;6.27;;;;;;;4.87;74.41;98296.45;1802851;79;27965;-79
2021/05/10 01:46:48;;;;;;;10.65;6.03;;;;;;;5.14;74.06;98293.31;1805818;78;22991;-79
2021/05/10 01:49:25;;;;;;;8.37;5.87;;;;;;;5.04;73.96;98296.84;1802803;79;28336;-78
2021/05/10 01:52:03;;;;;;;9.33;5.33;;;;;;;5.28;73.60;98297.23;1789960;79;22356;-79
2021/05/10 01:54:48;;;;;;;8.15;5.78;;;;;;;5.23;74.26;98291.13;1820740;79;22826;-79
2021/05/10 01:57:25;;;;;;;9.15;5.40;;;;;;;5.20;74.09;98297.69;1780608;79;22883;-79
2021/05/10 02:00:09;;;;;;;8.85;5.72;;;;;;;5.18;74.06;98301.63;1818293;79;22338;-79
2021/05/10 02:02:47;;;;;;;8.18;5.25;;;;;;;5.15;74.48;98295.09;1781340;79;22900;-78
2021/05/10 02:05:25;;;;;;;8.53;5.90;;;;;;;5.06;74.68;98295.97;1824987;77;23221;-79
2021/05/10 02:08:06;;;;;;;8.50;5.53;;;;;;;5.00;74.71;98298.19;1817713;77;22559;-78
2021/05/10 02:10:47;;;;;;;9.80;5.83;;;;;;;4.96;74.28;98283.73;1773561;79;22925;-79
2021/05/10 02:13:26;;;;;;;8.78;5.65;;;;;;;4.90;74.94;98289.86;1815678;79;22799;-80
2021/05/10 02:16:04;;;;;;;9.68;5.47;;;;;;;4.82;73.98;98287.25;1780310;79;23244;-77
2021/05/10 02:19:00;;;;;;;7.83;5.00;;;;;;;4.74;73.97;98282.02;1802053;78;22891;-79
2021/05/10 02:21:38;;;;;;;9.40;6.20;;;;;;;4.69;73.57;98287.71;1820672;79;22170;-78
2021/05/10 02:24:14;;;;;;;9.23;5.50;;;;;;;4.61;73.58;98290.34;1824957;77;23035;-76
2021/05/10 02:26:51;;;;;;;10.82;7.08;;;;;;;4.54;73.78;98276.80;1798981;79;27923;-78
2021/05/10 02:29:28;;;;;;;8.48;6.42;;;;;;;4.68;74.05;98283.34;1799228;79;22207;-79
2021/05/10 02:32:05;;;;;;;8.85;6.72;;;;;;;4.59;76.31;98293.85;1805242;79;27919;-77
2021/05/10 02:34:44;;;;;;;8.45;6.45;;;;;;;4.76;74.31;98284.64;1780727;79;22931;-79
2021/05/10 02:37:21;;;;;;;11.63;7.43;;;;;;;4.65;74.53;98289.90;1781746;79;28194;-78
2021/05/10 02:39:58;;;;;;;11.55;7.25;;;;;;;4.84;74.70;98291.20;1802852;79;28086;-79
2021/05/10 02:42:35;;;;;;;10.30;6.90;;;;;;;4.97;74.64;98290.73;1824919;77;23229;-78
2021/05/10 02:45:15;;;;;;;8.10;5.72;;;;;;;4.75;74.41;98290.35;1781354;79;23267;-79
2021/05/10 02:47:52;;;;;;;8.10;5.20;;;;;;;4.63;74.91;98298.23;1819771;79;22926;-78
2021/05/10 02:50:30;;;;;;;6.28;4.45;;;;;;;4.55;75.92;98298.66;1820723;79;22808;-78
2021/05/10 02:53:08;;;;;;;6.72;4.25;;;;;;;4.44;75.07;98303.94;1781375;79;22902;-77
2021/05/10 02:55:45;;;;;;;6.62;4.37;;;;;;;4.26;77.15;98316.16;1780482;79;22904;-77
2021/05/10 02:58:22;;;;;;;9.08;4.95;;;;;;;4.15;78.18;98313.97;1809167;79;22354;-79
2021/05/10 03:00:59;;;;;;;7.40;5.40;;;;;;;4.07;77.29;98307.40;1800100;79;28079;-79
2021/05/10 03:03:36;;;;;;;8.25;5.12;;;;;;;4.27;75.92;98298.67;1768282;79;22935;-78
2021/05/10 03:06:13;;;;;;;11.55;6.33;;;;;;;4.17;75.85;98292.53;1796926;79;28526;-79
2021/05/10 03:08:50;;;;;;;9.53;6.23;;;;;;;4.39;75.89;98299.13;1802845;79;28474;-78
2021/05/10 03:11:26;;;;;;;8.40;5.12;;;;;;;4.46;78.29;98298.23;1798247;78;27970;-77
2021/05/10 03:14:04;;;;;;;9.47;5.33;;;;;;;4.60;75.79;98297.80;1802859;79;28310;-77
2021/05/10 03:16:40;;;;;;;10.23;5.90;;;;;;;4.68;75.51;98308.71;1796980;79;28490;-79
2021/05/10 03:19:18;;;;;;;7.70;5.10;;;;;;;4.76;75.20;98304.34;1812511;79;21242;-78
2021/05/10 03:21:55;;;;;;;8.88;5.00;;;;;;;4.48;75.59;98300.41;1820556;79;22785;-77
2021/05/10 03:24:32;;;;;;;7.53;5.57;;;;;;;4.41;76.03;98296.05;1802237;79;28169;-79
2021/05/10 03:27:11;;;;;;;7.53;4.58;;;;;;;4.64;75.25;98297.80;1762156;79;22911;-78
2021/05/10 03:29:48;;;;;;;8.08;5.40;;;;;;;4.49;75.54;98295.63;1808623;79;22920;-78
2021/05/10 03:32:24;;;;;;;9.70;6.17;;;;;;;4.43;75.66;98297.80;1768898;77;28181;-78
2021/05/10 03:35:03;;;;;;;11.38;5.50;;;;;;;4.68;75.37;98302.15;1784219;78;23063;-79
2021/05/10 03:37:40;;;;;;;8.50;5.35;;;;;;;4.55;75.28;98298.66;1760001;79;23084;-79
2021/05/10 03:40:18;;;;;;;9.98;5.87;;;;;;;4.51;75.79;98300.84;1784207;78;22994;-79
2021/05/10 03:42:54;;;;;;;7.87;4.67;;;;;;;4.47;75.26;98302.17;1816685;77;23103;-79
2021/05/10 03:45:33;;;;;;;9.88;5.97;;;;;;;4.47;75.71;98304.80;1807462;75;28419;-79
2021/05/10 03:48:10;;;;;;;7.62;5.33;;;;;;;4.71;74.90;98306.09;1823003;78;23008;-79
2021/05/10 03:50:47;;;;;;;9.27;6.10;;;;;;;4.62;75.38;98303.91;1795259;76;28155;-79
2021/05/10 03:53:24;;;;;;;7.22;5.90;;;;;;;4.81;75.46;98301.72;1803326;79;27934;-79
2021/05/10 03:56:01;;;;;;;10.00;5.30;;;;;;;4.96;74.42;98302.13;1821685;79;22207;-78
2021/05/10 03:58:40;;;;;;;7.70;5.50;;;;;;;4.83;74.68;98294.28;1803760;79;29928;-79
2021/05/10 04:01:19;;;;;;;7.53;5.20;;;;;;;4.99;75.22;98300.81;1782322;79;22881;-80
2021/05/10 04:04:06;;;;;;;9.03;4.80;;;;;;;4.85;74.72;98301.70;1782170;79;23110;-80
2021/05/10 04:06:44;;;;;;;8.43;4.70;;;;;;;4.83;75.07;98303.89;1782058;79;23063;-78
2021/05/10 04:14:48;;;;;;;6.87;4.95;;;;;;;4.82;75.72;98306.95;1781310;79;22895;-79
2021/05/10 04:17:25;;;;;;;9.23;5.03;;;;;;;4.79;75.61;98310.02;1799303;79;22578;-79
2021/05/10 04:20:02;;;;;;;10.82;4.90;;;;;;;4.80;75.52;98303.89;1775019;79;22900;-78
2021/05/10 04:22:39;;;;;;;9.10;5.20;;;;;;;4.86;74.97;98307.38;1820938;79;23314;-79
2021/05/10 04:25:16;;;;;;;10.43;6.33;;;;;;;4.93;74.58;98305.62;1818442;79;22356;-77
2021/05/10 04:27:53;;;;;;;9.45;5.17;;;;;;;4.99;74.50;98299.04;1817970;79;21099;-78
2021/05/10 04:30:30;;;;;;;10.20;5.42;;;;;;;5.04;75.22;98296.42;1820929;79;22342;-79
2021/05/10 04:33:08;;;;;;;8.85;5.03;;;;;;;5.09;74.00;98292.02;1815806;79;23048;-79
2021/05/10 04:35:48;;;;;;;13.55;6.25;;;;;;;5.21;74.20;98305.57;1780223;79;22898;-78
2021/05/10 04:38:27;;;;;;;6.03;5.00;;;;;;;5.31;73.75;98305.55;1801935;79;28096;-79
2021/05/10 04:41:06;;;;;;;7.03;4.75;;;;;;;5.60;73.30;98308.50;1769169;79;22926;-78
2021/05/10 04:43:43;;;;;;;8.33;5.00;;;;;;;5.61;73.60;98315.05;1804364;79;22361;-79
2021/05/10 04:46:20;;;;;;;9.13;4.80;;;;;;;5.71;73.08;98315.89;1800475;79;38421;-78
2021/05/10 04:48:57;;;;;;;7.43;4.87;;;;;;;6.02;72.03;98319.66;1833985;76;27963;-79
2021/05/10 04:51:34;;;;;;;7.17;5.03;;;;;;;6.34;72.20;98319.94;1802834;79;38802;-80
2021/05/10 04:54:11;;;;;;;7.80;4.92;;;;;;;6.62;70.33;98317.53;1834103;76;28281;-78
2021/05/10 04:56:47;;;;;;;10.13;5.17;;;;;;;6.87;70.46;98312.05;1801937;79;27940;-79
2021/05/10 04:59:24;;;;;;;9.63;5.80;;;;;;;7.07;69.85;98309.66;1805226;79;27952;-78
2021/05/10 05:02:01;;;;;;;8.10;5.53;;;;;;;7.28;68.68;98314.27;1793396;79;27963;-79
2021/05/10 05:04:38;;;;;;;7.40;6.33;;;;;;;7.36;67.86;98317.23;1798089;79;28122;-79
2021/05/10 05:07:21;;;;;;;9.05;6.22;;;;;;;7.53;67.38;98311.77;1812647;79;23278;-78
2021/05/10 05:09:58;;;;;;;9.53;6.50;;;;;;;7.33;68.05;98309.81;1820722;79;21119;-79
2021/05/10 05:12:41;;;;;;;12.20;6.40;;;;;;;7.27;68.46;98314.73;1790663;79;23272;-79
2021/05/10 05:15:20;;;;;;;13.62;8.23;;;;;;;7.29;68.82;98311.62;1763330;79;28453;-79
2021/05/10 05:17:56;;;;;;;14.00;8.70;;;;;;;7.53;68.08;98310.91;1786460;79;22901;-80
2021/05/10 05:20:37;;;;;;;16.07;8.90;;;;;;;7.41;68.28;98310.61;1805279;77;28188;-80
2021/05/10 05:23:26;;;;;;;15.25;8.53;;;;;;;7.64;67.41;98314.74;1792273;79;22949;-80
2021/05/10 05:26:05;;;;;;;16.85;8.90;;;;;;;7.59;67.79;98310.83;1819732;76;22841;-81
2021/05/10 05:28:43;;;;;;;16.50;9.23;;;;;;;7.60;68.55;98313.03;1781359;79;23289;-82
2021/05/10 05:31:23;;;;;;;13.90;9.25;;;;;;;7.62;68.02;98317.39;1764375;79;22896;-82
2021/05/10 05:33:59;;;;;;;15.65;8.90;;;;;;;7.66;68.11;98308.55;1781493;79;22879;-82
2021/05/10 05:36:38;;;;;;;17.23;10.95;;;;;;;7.71;67.86;98311.55;1781400;79;22904;-82
2021/05/10 05:39:15;;;;;;;19.40;11.97;;;;;;;7.78;67.87;98311.45;1802722;79;28305;-81
2021/05/10 05:41:52;;;;;;;16.85;11.25;;;;;;;8.05;67.48;98306.70;1779845;79;27947;-81
2021/05/10 05:44:33;;;;;;;18.23;11.10;;;;;;;8.32;66.47;98307.17;1802757;79;28124;-82
2021/05/10 05:47:15;;;;;;;11.43;9.05;;;;;;;8.64;65.68;98308.05;1815768;79;22858;-81
2021/05/10 05:49:52;;;;;;;14.93;8.45;;;;;;;8.68;65.76;98305.32;1781387;79;22892;-82
2021/05/10 05:52:30;;;;;;;14.35;8.48;;;;;;;8.76;65.38;98301.22;1780566;79;23055;-80
2021/05/10 05:55:10;;;;;;;16.80;8.98;;;;;;;8.83;65.18;98298.03;1778913;79;22884;-81
2021/05/10 05:57:47;;;;;;;13.08;8.68;;;;;;;8.91;65.02;98296.56;1756830;79;23380;-81
2021/05/10 06:00:25;;;;;;;11.80;9.27;;;;;;;8.98;64.74;98292.46;1829171;76;33209;-82
2021/05/10 06:03:03;;;;;;;12.58;8.78;;;;;;;9.21;63.97;98295.57;1801477;79;22940;-80
2021/05/10 06:05:39;;;;;;;12.18;8.55;;;;;;;9.23;64.17;98293.31;1818373;79;22807;-81
2021/05/10 06:08:16;;;;;;;14.90;9.75;;;;;;;9.28;64.20;98295.01;1802812;79;27959;-82
2021/05/10 06:10:54;;;;;;;22.85;9.53;;;;;;;9.55;63.59;98298.88;1765785;79;23035;-81
2021/05/10 06:13:33;;;;;;;12.98;8.48;;;;;;;9.56;63.83;98305.93;1780261;79;23041;-80
2021/05/10 06:16:10;;;;;;;10.23;8.35;;;;;;;9.63;63.81;98296.95;1821085;77;23011;-79
2021/05/10 06:18:48;;;;;;;15.68;8.20;;;;;;;9.71;63.61;98301.22;1818251;79;22325;-75
2021/05/10 06:21:27;;;;;;;12.37;6.90;;;;;;;9.81;63.59;98293.94;1818195;77;22850;-76
2021/05/10 06:24:04;;;;;;;11.35;8.85;;;;;;;9.92;63.93;98287.09;1805369;77;27652;-76
2021/05/10 06:26:44;;;;;;;9.20;7.72;;;;;;;10.19;62.92;98284.71;1830507;77;23489;-77
2021/05/10 06:29:20;;;;;;;15.83;7.67;;;;;;;10.22;63.10;98285.50;1804640;78;23102;-76
2021/05/10 06:31:57;;;;;;;10.55;7.78;;;;;;;10.33;63.06;98280.44;1799531;79;22336;-76
2021/05/10 06:34:36;;;;;;;9.15;6.95;;;;;;;10.45;62.60;98275.30;1769464;79;23430;-74
2021/05/10 06:37:18;;;;;;;9.50;6.78;;;;;;;10.55;62.66;98271.53;1803301;79;22324;-75
2021/05/10 06:39:52;;;;;;;10.18;7.12;;;;;;;10.66;62.43;98260.64;1806460;79;22872;-77
2021/05/10 06:42:29;;;;;;;12.60;8.07;;;;;;;10.79;62.26;98262.52;1794609;79;38886;-81
2021/05/10 06:45:09;;;;;;;9.00;7.12;;;;;;;11.12;61.55;98260.34;1823849;77;22895;-74
2021/05/10 06:47:53;;;;;;;15.28;6.72;;;;;;;11.22;61.26;98253.88;1794927;79;23420;-76
2021/05/10 06:50:31;;;;;;;10.43;6.85;;;;;;;11.37;61.18;98264.97;1780668;79;23033;-77
2021/05/10 06:53:08;;;;;;;13.45;6.47;;;;;;;11.51;60.97;98261.91;1772840;79;23341;-80
2021/05/10 06:55:45;;;;;;;10.55;7.20;;;;;;;11.62;59.54;98257.14;1789789;79;28116;-77
2021/05/10 06:58:25;;;;;;;10.20;6.00;;;;;;;11.93;59.87;98253.58;1797652;79;22966;-78
2021/05/10 07:01:04;;;;;;;9.93;5.92;;;;;;;12.01;59.79;98253.34;1767321;79;23378;-78
2021/05/10 07:03:44;;;;;;;10.18;6.17;;;;;;;12.11;58.85;98240.20;1770601;79;23529;-77
2021/05/10 07:06:21;;;;;;;10.80;6.22;;;;;;;12.25;58.69;98238.89;1784900;79;28058;-77
2021/05/10 07:09:01;;;;;;;8.40;5.40;;;;;;;12.57;58.03;98238.27;1767099;79;22927;-77
2021/05/10 07:11:38;;;;;;;8.58;5.90;;;;;;;12.65;58.21;98238.89;1782027;79;28042;-77
2021/05/10 07:14:15;;;;;;;13.85;5.67;;;;;;;12.99;57.22;98234.66;1826071;77;23040;-77
2021/05/10 07:16:53;;;;;;;6.95;4.67;;;;;;;13.04;56.05;98234.03;1821534;77;22851;-77
2021/05/10 07:19:30;;;;;;;8.05;4.80;;;;;;;13.15;55.70;98229.62;1801323;79;23323;-78
2021/05/10 07:22:07;;;;;;;9.38;4.80;;;;;;;13.26;55.55;98223.92;1824824;77;21137;-76
2021/05/10 07:24:43;;;;;;;6.83;4.40;;;;;;;13.37;55.11;98223.53;1748639;79;28218;-78
2021/05/10 07:27:21;;;;;;;10.20;4.62;;;;;;;13.65;51.91;98217.16;1788901;79;28058;-77
2021/05/10 07:29:57;;;;;;;8.53;4.30;;;;;;;13.93;52.84;98217.42;1776212;79;28524;-76
2021/05/10 07:32:38;;;;;;;8.83;4.37;;;;;;;14.20;52.50;98215.92;1767178;79;23043;-79
2021/05/10 07:35:18;;;;;;;9.03;3.98;;;;;;;14.21;51.80;98213.66;1828138;77;22897;-81
2021/05/10 07:37:55;;;;;;;9.13;3.80;;;;;;;14.29;51.69;98206.67;1826963;77;22929;-82
2021/05/10 07:40:32;;;;;;;10.18;4.05;;;;;;;14.37;51.97;98204.56;1784788;79;28038;-81
2021/05/10 07:43:09;;;;;;;6.87;3.45;;;;;;;14.66;49.97;98202.47;1823471;77;22974;-83
2021/05/10 07:45:49;;;;;;;6.22;2.95;;;;;;;14.69;50.15;98190.31;1766781;79;22896;-83
2021/05/10 07:48:26;;;;;;;6.97;3.30;;;;;;;14.80;50.44;98187.67;1822072;76;22157;-83
2021/05/10 07:51:04;;;;;;;5.58;2.60;;;;;;;14.90;49.67;98188.55;1802868;79;23019;-81
2021/05/10 07:53:41;;;;;;;6.78;2.35;;;;;;;15.06;47.08;98182.52;1830197;77;22797;-80
2021/05/10 07:56:18;;;;;;;5.25;2.30;;;;;;;15.16;46.66;98179.83;1828215;77;23127;-80
2021/05/10 07:58:57;;;;;;;7.10;2.62;;;;;;;15.30;46.44;98177.88;1825733;76;21656;-80
2021/05/10 08:01:34;;;;;;;4.37;2.15;;;;;;;15.41;46.09;98177.84;1804020;78;22921;-82
2021/05/10 08:04:11;;;;;;;3.50;2.27;;;;;;;15.55;45.68;98183.87;1787454;79;28039;-81
2021/05/10 08:06:53;;;;;;;3.10;2.00;;;;;;;15.83;43.54;98176.73;1770863;79;22890;-80
2021/05/10 08:09:30;;;;;;;3.42;2.08;;;;;;;15.90;43.35;98172.45;1801750;77;23021;-80
2021/05/10 08:12:08;;;;;;;6.92;2.20;;;;;;;16.00;43.92;98175.55;1824347;76;22189;-81
2021/05/10 08:15:10;;;;;;;3.50;2.22;;;;;;;16.14;44.08;98171.73;1789909;79;22911;-81
2021/05/10 08:17:46;;;;;;;4.60;2.12;;;;;;;16.23;42.77;98163.72;1805944;77;22861;-80
2021/05/10 08:20:25;;;;;;;3.47;2.35;;;;;;;16.36;43.23;98163.50;1785782;79;22924;-80
2021/05/10 08:23:22;;;;;;;5.10;2.30;;;;;;;16.52;42.27;98163.20;1778447;78;36765;-81
2021/05/10 08:25:59;;;;;;;2.58;1.77;;;;;;;16.77;41.21;98164.11;1809532;77;22925;-81
2021/05/10 08:28:40;;;;;;;6.60;2.15;;;;;;;16.87;40.61;98168.03;1765995;79;22884;-82
2021/05/10 08:31:18;;;;;;;6.15;2.15;;;;;;;16.94;40.38;98164.56;1778761;79;27700;-80
2021/05/10 08:33:55;;;;;;;4.35;1.90;;;;;;;17.25;38.27;98153.59;1796003;79;22891;-80
2021/05/10 08:36:33;;;;;;;3.37;2.20;;;;;;;17.32;38.03;98151.91;1802679;77;23071;-80
2021/05/10 08:39:13;;;;;;;2.40;1.87;;;;;;;17.38;38.53;98141.73;1802545;77;23219;-81
2021/05/10 08:41:51;;;;;;;2.80;1.95;;;;;;;17.49;37.67;98138.47;1778006;79;22895;-76
2021/05/10 08:44:28;;;;;;;2.83;1.90;;;;;;;17.57;37.66;98138.03;1767637;79;23067;-80
2021/05/10 08:47:05;;;;;;;12.60;7.33;;;;;;;17.63;36.74;98136.34;1815539;79;22852;-79
2021/05/10 08:49:49;;;;;;;4.17;2.05;;;;;;;17.73;35.92;98139.34;1820721;79;23845;-77
2021/05/10 08:52:27;;;;;;;5.20;1.77;;;;;;;17.84;37.55;98122.66;1781228;79;22876;-77
2021/05/10 08:55:07;;;;;;;3.80;2.10;;;;;;;17.92;37.38;98119.06;1843384;77;23023;-76
2021/05/10 08:57:45;;;;;;;3.10;1.87;;;;;;;18.01;36.80;98128.39;1800245;77;22799;-75
2021/05/10 09:00:23;;;;;;;3.58;2.25;;;;;;;18.10;36.95;98118.97;1798485;79;22913;-75
2021/05/10 09:03:12;;;;;;;2.83;2.17;;;;;;;18.27;36.68;98111.76;1793372;79;22884;-76
2021/05/10 09:05:51;;;;;;;4.62;2.40;;;;;;;18.36;37.09;98108.53;1797162;79;23085;-76
2021/05/10 09:08:33;;;;;;;3.50;2.00;;;;;;;18.47;37.21;98103.84;1770470;79;23247;-75
2021/05/10 09:11:16;;;;;;;2.98;1.70;;;;;;;18.57;37.26;98106.34;1768474;79;23287;-76
2021/05/10 09:13:58;;;;;;;2.33;1.62;;;;;;;18.65;37.45;98103.22;1769026;79;23278;-76
2021/05/10 09:16:41;;;;;;;3.20;1.60;;;;;;;18.78;36.31;98099.77;1831391;77;22862;-75
2021/05/10 09:19:18;;;;;;;2.25;1.55;;;;;;;18.88;37.07;98094.21;1768367;79;23070;-74
2021/05/10 09:21:56;;;;;;;2.12;1.60;;;;;;;18.97;35.64;98092.30;1799039;79;23055;-75
2021/05/10 09:24:53;;;;;;;4.55;1.90;;;;;;;19.04;35.61;98094.16;1765743;79;22940;-76
2021/05/10 09:27:30;;;;;;;1.95;1.65;;;;;;;19.07;35.66;98087.72;1767882;79;23050;-76
2021/05/10 09:30:23;;;;;;;2.27;1.60;;;;;;;19.10;36.01;98081.67;1800038;79;22953;-76
2021/05/10 09:33:00;;;;;;;6.00;1.70;;;;;;;19.20;35.86;98074.38;1797050;79;22905;-75
2021/05/10 09:35:39;;;;;;;3.30;1.77;;;;;;;19.31;35.62;98083.09;1777286;79;28061;-76
2021/05/10 09:38:23;;;;;;;2.58;1.52;;;;;;;19.55;34.52;98077.09;1805232;77;22883;-76
2021/05/10 09:41:09;;;;;;;2.90;1.75;;;;;;;19.62;34.87;98081.97;1796046;79;23060;-76
2021/05/10 09:43:49;;;;;;;3.58;1.80;;;;;;;19.76;35.07;98068.95;1822674;77;22815;-77
2021/05/10 09:46:46;;;;;;;2.42;1.72;;;;;;;19.87;34.88;98075.44;1799645;79;28055;-78
2021/05/10 09:49:50;;;;;;;2.55;1.60;;;;;;;20.16;33.89;98070.83;1806953;79;22921;-75
2021/05/10 09:52:32;;;;;;;2.87;1.50;;;;;;;20.27;31.84;98074.62;1792603;79;22891;-76
2021/05/10 09:55:10;;;;;;;6.03;3.95;;;;;;;20.36;32.53;98065.04;1796759;78;22895;-76
2021/05/10 09:57:56;;;;;;;2.80;1.92;;;;;;;20.49;33.28;98064.58;1801171;79;23022;-77
2021/05/10 10:00:33;;;;;;;3.80;1.75;;;;;;;20.65;32.30;98067.54;1787629;79;28005;-76
2021/05/10 10:03:38;;;;;;;3.25;1.50;;;;;;;20.90;31.94;98069.88;1824136;77;23255;-76
2021/05/10 10:06:19;;;;;;;3.62;2.33;;;;;;;20.99;31.91;98062.97;1815243;77;22873;-75
2021/05/10 10:08:57;;;;;;;3.10;1.67;;;;;;;21.05;32.64;98054.47;1801837;79;22909;-76
2021/05/10 10:11:34;;;;;;;2.20;2.00;;;;;;;21.08;32.51;98044.31;1807194;79;23233;-77
2021/05/10 10:14:13;;;;;;;2.70;1.60;;;;;;;21.15;30.98;98051.48;1778985;79;23007;-78
2021/05/10 10:16:52;;;;;;;3.52;1.90;;;;;;;21.23;31.62;98042.33;1769436;79;23233;-77
2021/05/10 10:19:29;;;;;;;2.85;1.52;;;;;;;21.35;30.91;98037.03;1768284;79;22988;-76
2021/05/10 10:22:07;;;;;;;1.92;1.50;;;;;;;21.50;30.91;98037.72;1826294;77;22974;-75
2021/05/10 10:24:48;;;;;;;1.60;1.50;;;;;;;21.54;27.11;98028.43;1768261;79;23130;-76
2021/05/10 10:27:30;;;;;;;3.83;1.65;;;;;;;21.54;28.71;98035.68;1768063;79;22936;-76
2021/05/10 10:30:10;;;;;;;2.25;1.47;;;;;;;21.61;28.65;98036.93;1807152;79;22889;-77
2021/05/10 10:32:48;;;;;;;3.25;1.85;;;;;;;21.70;29.08;98032.67;1758551;79;22911;-77
2021/05/10 10:35:27;;;;;;;4.60;1.50;;;;;;;21.81;28.63;98036.83;1781236;79;23008;-77
2021/05/10 10:38:05;;;;;;;2.10;1.80;;;;;;;22.11;29.81;98034.59;1824968;77;23246;-76
2021/05/10 10:40:42;;;;;;;3.22;1.37;;;;;;;22.84;29.88;98030.83;1781107;79;23311;-77
2021/05/10 10:43:28;;;;;;;1.75;1.65;;;;;;;24.14;26.56;98028.84;1779276;79;23035;-77
2021/05/10 10:46:28;;;;;;;4.00;1.12;;;;;;;25.30;26.17;98026.53;1792287;79;22822;-79
2021/05/10 10:49:35;;;;;;;9.73;1.57;;;;;;;26.50;21.25;98016.97;1760980;79;22906;-77
2021/05/10 10:52:19;;;;;;;2.02;1.40;;;;;;;27.61;19.45;98006.34;1780462;79;22909;-77
2021/05/10 10:55:27;;;;;;;3.52;1.62;;;;;;;28.37;21.57;98003.28;1845359;77;22868;-78
2021/05/10 10:58:21;;;;;;;2.90;1.70;;;;;;;29.50;20.77;98002.36;1802666;79;28055;-77
2021/05/10 11:01:19;;;;;;;3.22;1.85;;;;;;;30.63;18.56;97999.14;1780387;79;22909;-78
2021/05/10 11:03:53;;;;;;;2.10;1.60;;;;;;;31.43;18.08;97995.66;1778630;79;22891;-79
2021/05/10 11:09:52;;;;;;;1.82;1.47;;;;;;;32.14;16.74;97976.31;1781222;79;22649;-80
2021/05/10 11:12:52;;;;;;;3.67;1.47;;;;;;;32.37;16.20;97980.92;1779034;79;22830;-77
2021/05/10 11:15:43;;;;;;;3.27;1.32;;;;;;;32.70;17.42;97982.48;1764998;79;23261;-75
2021/05/10 11:18:53;;;;;;;2.40;1.30;;;;;;;33.28;16.75;97964.48;1800559;79;22841;-75
2021/05/10 11:21:49;;;;;;;1.90;1.80;;;;;;;33.93;16.92;97953.59;1801179;78;23445;-75
2021/05/10 11:24:32;;;;;;;2.90;2.20;;;;;;;34.34;16.68;97954.77;1800150;79;22335;-75
2021/05/10 11:27:31;;;;;;;2.08;1.87;;;;;;;34.54;16.48;97951.84;1797906;78;22687;-76
2021/05/10 11:30:08;;;;;;;3.62;2.17;;;;;;;34.65;16.32;97949.10;1821341;77;22773;-75
2021/05/10 11:32:52;;;;;;;3.87;2.12;;;;;;;34.73;14.96;97937.91;1781257;79;22924;-76
2021/05/10 11:35:29;;;;;;;2.92;2.00;;;;;;;34.65;14.54;97940.30;1830232;77;22945;-75
2021/05/10 11:38:08;;;;;;;2.72;2.05;;;;;;;34.72;15.23;97937.08;1824934;77;23015;-76
2021/05/10 11:40:49;;;;;;;2.27;2.08;;;;;;;35.12;15.26;97943.31;1759781;79;22946;-75
2021/05/10 11:43:26;;;;;;;2.83;2.50;;;;;;;35.32;15.25;97929.30;1803301;78;23344;-75
2021/05/10 11:46:03;;;;;;;4.28;2.35;;;;;;;35.32;14.99;97934.81;1775763;79;28106;-75
2021/05/10 11:48:41;;;;;;;2.50;2.30;;;;;;;35.63;13.22;97928.77;1819105;76;27929;-75
2021/05/10 11:51:21;;;;;;;3.20;2.15;;;;;;;36.01;13.49;97914.91;1800065;79;22892;-76
2021/05/10 11:54:03;;;;;;;2.15;1.98;;;;;;;35.65;14.32;97913.37;1805153;79;22926;-76
2021/05/10 11:56:46;;;;;;;2.60;2.17;;;;;;;35.76;15.02;97910.02;1834732;77;22808;-74
2021/05/10 12:02:14;;;;;;;2.37;1.75;;;;;;;35.77;13.69;97905.34;1839465;77;23023;-75
2021/05/10 12:04:55;;;;;;;3.80;2.20;;;;;;;35.52;14.29;97898.51;1803535;79;22784;-76
2021/05/10 12:07:34;;;;;;;4.78;2.00;;;;;;;35.53;14.61;97900.71;1813638;79;23209;-75
2021/05/10 12:10:12;;;;;;;2.92;1.82;;;;;;;35.72;14.47;97889.44;1781168;79;23278;-77
2021/05/10 12:12:50;;;;;;;3.15;1.87;;;;;;;35.96;14.72;97887.12;1796460;79;22865;-76
2021/05/10 12:15:30;;;;;;;3.37;1.87;;;;;;;36.13;12.60;97887.56;1820819;79;22905;-74
2021/05/10 12:18:09;;;;;;;3.42;1.90;;;;;;;36.19;13.83;97889.45;1780597;79;22906;-75
2021/05/10 12:20:47;;;;;;;2.00;1.80;;;;;;;36.23;13.88;97882.14;1812469;77;22581;-76
2021/05/10 12:23:25;;;;;;;2.30;1.77;;;;;;;35.94;12.32;97872.16;1804005;79;22727;-76
2021/05/10 12:26:07;;;;;;;3.90;2.10;;;;;;;35.84;13.01;97870.36;1789316;79;28386;-75
2021/05/10 12:28:44;;;;;;;3.17;2.02;;;;;;;36.12;12.63;97873.42;1828010;77;23308;-76
2021/05/10 12:31:26;;;;;;;6.50;2.33;;;;;;;35.81;13.50;97876.29;1819663;77;23298;-75
2021/05/10 12:34:07;;;;;;;3.37;1.80;;;;;;;35.93;13.65;97870.47;1767170;79;22934;-80
2021/05/10 12:36:44;;;;;;;3.47;2.22;;;;;;;36.07;13.06;97862.16;1799752;77;22906;-80
2021/05/10 12:39:24;;;;;;;2.42;1.90;;;;;;;36.15;13.29;97870.25;1797555;78;23549;-81
2021/05/10 12:42:20;;;;;;;4.28;2.08;;;;;;;36.07;13.22;97856.64;1767261;79;23397;-80
2021/05/10 12:45:13;;;;;;;4.28;1.90;;;;;;;35.91;13.94;97858.78;1793914;79;22933;-81